sensor_id;sensor_type;location;lat;lon;timestamp;pressure;altitude;pressure_sealevel;temperature;humidity
46291;BME280;32023;44.444;26.006;2023-03-23T00:01:50;100566.66;;;10.22;86.20
46291;BME280;32023;44.444;26.006;2023-03-23T00:04:22;100560.88;;;10.24;86.47
46291;BME280;32023;44.444;26.006;2023-03-23T00:06:55;100562.00;;;10.23;86.13
46291;BME280;32023;44.444;26.006;2023-03-23T00:11:53;100565.50;;;10.18;86.43
46291;BME280;32023;44.444;26.006;2023-03-23T00:14:22;100556.28;;;10.12;86.54
46291;BME280;32023;44.444;26.006;2023-03-23T00:16:49;100553.47;;;10.07;86.10
46291;BME280;32023;44.444;26.006;2023-03-23T00:19:16;100553.63;;;10.01;86.71
46291;BME280;32023;44.444;26.006;2023-03-23T00:21:48;100554.63;;;9.95;86.97
46291;BME280;32023;44.444;26.006;2023-03-23T00:24:23;100551.22;;;9.88;86.62
46291;BME280;32023;44.444;26.006;2023-03-23T00:27:00;100549.50;;;9.82;87.05
46291;BME280;32023;44.444;26.006;2023-03-23T00:29:31;100556.47;;;9.73;87.27
46291;BME280;32023;44.444;26.006;2023-03-23T00:31:59;100550.03;;;9.67;87.76
46291;BME280;32023;44.444;26.006;2023-03-23T00:34:28;100542.81;;;9.61;87.77
46291;BME280;32023;44.444;26.006;2023-03-23T00:36:58;100545.78;;;9.59;87.99
46291;BME280;32023;44.444;26.006;2023-03-23T00:39:25;100541.63;;;9.57;88.43
46291;BME280;32023;44.444;26.006;2023-03-23T00:42:04;100541.91;;;9.55;88.21
46291;BME280;32023;44.444;26.006;2023-03-23T00:44:33;100537.72;;;9.53;88.17
46291;BME280;32023;44.444;26.006;2023-03-23T00:47:10;100541.81;;;9.50;88.30
46291;BME280;32023;44.444;26.006;2023-03-23T00:49:44;100537.66;;;9.48;88.09
46291;BME280;32023;44.444;26.006;2023-03-23T00:52:21;100533.47;;;9.45;88.08
46291;BME280;32023;44.444;26.006;2023-03-23T00:54:47;100528.47;;;9.42;88.51
46291;BME280;32023;44.444;26.006;2023-03-23T00:59:45;100523.72;;;9.38;88.39
46291;BME280;32023;44.444;26.006;2023-03-23T01:02:15;100521.47;;;9.35;88.34
46291;BME280;32023;44.444;26.006;2023-03-23T01:04:48;100526.63;;;9.31;88.50
46291;BME280;32023;44.444;26.006;2023-03-23T01:07:19;100520.78;;;9.28;88.46
46291;BME280;32023;44.444;26.006;2023-03-23T01:09:49;100523.19;;;9.24;88.52
46291;BME280;32023;44.444;26.006;2023-03-23T01:12:21;100530.84;;;9.22;88.68
46291;BME280;32023;44.444;26.006;2023-03-23T01:14:50;100522.25;;;9.18;88.83
46291;BME280;32023;44.444;26.006;2023-03-23T01:17:30;100518.94;;;9.16;88.79
46291;BME280;32023;44.444;26.006;2023-03-23T01:19:59;100523.25;;;9.12;88.89
46291;BME280;32023;44.444;26.006;2023-03-23T01:22:25;100514.06;;;9.07;88.70
46291;BME280;32023;44.444;26.006;2023-03-23T01:24:52;100510.16;;;9.03;88.64
46291;BME280;32023;44.444;26.006;2023-03-23T01:27:25;100511.72;;;8.99;88.71
46291;BME280;32023;44.444;26.006;2023-03-23T01:29:54;100511.38;;;8.95;88.68
46291;BME280;32023;44.444;26.006;2023-03-23T01:32:20;100511.88;;;8.92;88.73
46291;BME280;32023;44.444;26.006;2023-03-23T01:34:47;100503.91;;;8.91;88.90
46291;BME280;32023;44.444;26.006;2023-03-23T01:37:15;100509.84;;;8.88;88.82
46291;BME280;32023;44.444;26.006;2023-03-23T01:39:41;100496.06;;;8.83;88.83
46291;BME280;32023;44.444;26.006;2023-03-23T01:42:15;100500.38;;;8.79;89.01
46291;BME280;32023;44.444;26.006;2023-03-23T01:47:14;100506.81;;;8.73;89.00
46291;BME280;32023;44.444;26.006;2023-03-23T01:49:42;100508.97;;;8.70;88.96
46291;BME280;32023;44.444;26.006;2023-03-23T01:52:27;100502.06;;;8.68;88.95
46291;BME280;32023;44.444;26.006;2023-03-23T01:55:02;100511.63;;;8.65;89.22
46291;BME280;32023;44.444;26.006;2023-03-23T01:57:29;100513.78;;;8.63;89.02
46291;BME280;32023;44.444;26.006;2023-03-23T01:59:57;100513.44;;;8.60;89.03
46291;BME280;32023;44.444;26.006;2023-03-23T02:02:25;100506.75;;;8.56;88.77
46291;BME280;32023;44.444;26.006;2023-03-23T02:04:52;100519.06;;;8.53;88.97
46291;BME280;32023;44.444;26.006;2023-03-23T02:07:21;100515.13;;;8.49;89.06
46291;BME280;32023;44.444;26.006;2023-03-23T02:09:52;100521.69;;;8.48;89.22
46291;BME280;32023;44.444;26.006;2023-03-23T02:12:18;100515.59;;;8.46;89.43
46291;BME280;32023;44.444;26.006;2023-03-23T02:14:45;100516.09;;;8.43;89.38
46291;BME280;32023;44.444;26.006;2023-03-23T02:35:38;100543.44;;;8.15;90.09
46291;BME280;32023;44.444;26.006;2023-03-23T02:41:09;100559.53;;;8.11;90.53
46291;BME280;32023;44.444;26.006;2023-03-23T02:43:44;100550.22;;;8.12;91.00
46291;BME280;32023;44.444;26.006;2023-03-23T02:46:14;100560.38;;;8.12;90.92
46291;BME280;32023;44.444;26.006;2023-03-23T02:48:44;100553.34;;;8.04;91.05
46291;BME280;32023;44.444;26.006;2023-03-23T02:51:17;100557.63;;;8.00;91.27
46291;BME280;32023;44.444;26.006;2023-03-23T02:53:45;100553.91;;;7.95;91.12
46291;BME280;32023;44.444;26.006;2023-03-23T02:56:38;100557.16;;;7.92;91.34
46291;BME280;32023;44.444;26.006;2023-03-23T02:59:08;100551.03;;;7.90;90.73
46291;BME280;32023;44.444;26.006;2023-03-23T03:04:05;100563.94;;;7.78;90.37
46291;BME280;32023;44.444;26.006;2023-03-23T03:17:48;100555.78;;;7.59;89.70
46291;BME280;32023;44.444;26.006;2023-03-23T03:20:23;100547.91;;;7.51;89.88
46291;BME280;32023;44.444;26.006;2023-03-23T03:22:52;100548.63;;;7.47;90.37
46291;BME280;32023;44.444;26.006;2023-03-23T03:25:19;100561.84;;;7.50;90.37
46291;BME280;32023;44.444;26.006;2023-03-23T03:27:46;100558.03;;;7.51;90.60
46291;BME280;32023;44.444;26.006;2023-03-23T03:30:15;100550.53;;;7.46;90.00
46291;BME280;32023;44.444;26.006;2023-03-23T03:32:47;100558.38;;;7.43;90.34
46291;BME280;32023;44.444;26.006;2023-03-23T03:35:20;100564.69;;;7.43;90.52
46291;BME280;32023;44.444;26.006;2023-03-23T03:40:50;100572.28;;;7.41;90.63
46291;BME280;32023;44.444;26.006;2023-03-23T03:43:43;100583.88;;;7.43;90.39
46291;BME280;32023;44.444;26.006;2023-03-23T03:46:09;100577.09;;;7.46;90.28
46291;BME280;32023;44.444;26.006;2023-03-23T03:48:36;100573.75;;;7.44;90.16
46291;BME280;32023;44.444;26.006;2023-03-23T03:51:02;100573.34;;;7.40;90.30
46291;BME280;32023;44.444;26.006;2023-03-23T03:53:29;100575.88;;;7.42;90.37
46291;BME280;32023;44.444;26.006;2023-03-23T03:58:51;100569.56;;;7.41;89.97
46291;BME280;32023;44.444;26.006;2023-03-23T04:01:25;100562.28;;;7.35;89.57
46291;BME280;32023;44.444;26.006;2023-03-23T04:04:07;100568.47;;;7.31;89.37
46291;BME280;32023;44.444;26.006;2023-03-23T04:06:34;100582.38;;;7.29;89.46
46291;BME280;32023;44.444;26.006;2023-03-23T04:09:03;100576.91;;;7.29;89.33
46291;BME280;32023;44.444;26.006;2023-03-23T04:11:32;100578.56;;;7.30;89.44
46291;BME280;32023;44.444;26.006;2023-03-23T04:13:58;100576.69;;;7.31;89.39
46291;BME280;32023;44.444;26.006;2023-03-23T04:16:29;100583.00;;;7.31;89.43
46291;BME280;32023;44.444;26.006;2023-03-23T04:18:55;100572.88;;;7.32;89.47
46291;BME280;32023;44.444;26.006;2023-03-23T04:21:24;100573.47;;;7.34;89.21
46291;BME280;32023;44.444;26.006;2023-03-23T04:23:56;100575.84;;;7.30;89.29
46291;BME280;32023;44.444;26.006;2023-03-23T04:26:29;100576.69;;;7.31;89.49
46291;BME280;32023;44.444;26.006;2023-03-23T04:28:55;100576.47;;;7.32;89.45
46291;BME280;32023;44.444;26.006;2023-03-23T04:31:22;100575.97;;;7.35;89.25
46291;BME280;32023;44.444;26.006;2023-03-23T04:33:53;100572.78;;;7.38;89.29
46291;BME280;32023;44.444;26.006;2023-03-23T04:36:34;100579.69;;;7.41;89.13
46291;BME280;32023;44.444;26.006;2023-03-23T04:39:04;100578.41;;;7.43;89.27
46291;BME280;32023;44.444;26.006;2023-03-23T04:41:36;100577.78;;;7.41;88.93
46291;BME280;32023;44.444;26.006;2023-03-23T04:49:13;100581.00;;;7.38;88.46
46291;BME280;32023;44.444;26.006;2023-03-23T04:57:07;100583.59;;;7.33;88.52
46291;BME280;32023;44.444;26.006;2023-03-23T04:59:48;100587.03;;;7.29;88.54
46291;BME280;32023;44.444;26.006;2023-03-23T05:02:19;100579.63;;;7.29;88.92
46291;BME280;32023;44.444;26.006;2023-03-23T05:04:46;100578.47;;;7.25;89.06
46291;BME280;32023;44.444;26.006;2023-03-23T05:07:13;100586.06;;;7.23;89.41
46291;BME280;32023;44.444;26.006;2023-03-23T05:09:39;100587.75;;;7.24;89.56
46291;BME280;32023;44.444;26.006;2023-03-23T05:12:06;100601.69;;;7.34;89.99
46291;BME280;32023;44.444;26.006;2023-03-23T05:14:32;100601.38;;;7.42;90.15
46291;BME280;32023;44.444;26.006;2023-03-23T05:17:00;100602.09;;;7.49;90.07
46291;BME280;32023;44.444;26.006;2023-03-23T05:19:26;100603.91;;;7.55;89.81
46291;BME280;32023;44.444;26.006;2023-03-23T05:21:57;100601.91;;;7.62;89.42
46291;BME280;32023;44.444;26.006;2023-03-23T05:24:43;100607.03;;;7.59;88.76
46291;BME280;32023;44.444;26.006;2023-03-23T05:32:51;100604.66;;;7.62;88.73
46291;BME280;32023;44.444;26.006;2023-03-23T05:38:34;100608.31;;;7.56;87.79
46291;BME280;32023;44.444;26.006;2023-03-23T05:41:17;100606.63;;;7.44;87.63
46291;BME280;32023;44.444;26.006;2023-03-23T05:43:58;100607.91;;;7.41;87.84
46291;BME280;32023;44.444;26.006;2023-03-23T05:46:33;100608.00;;;7.35;88.32
46291;BME280;32023;44.444;26.006;2023-03-23T05:52:02;100622.34;;;7.48;89.15
46291;BME280;32023;44.444;26.006;2023-03-23T05:54:32;100623.06;;;7.55;89.03
46291;BME280;32023;44.444;26.006;2023-03-23T05:57:02;100623.84;;;7.62;89.01
46291;BME280;32023;44.444;26.006;2023-03-23T05:59:35;100637.44;;;7.69;89.12
46291;BME280;32023;44.444;26.006;2023-03-23T06:02:35;100641.06;;;7.81;88.95
46291;BME280;32023;44.444;26.006;2023-03-23T06:05:03;100635.44;;;7.88;88.57
46291;BME280;32023;44.444;26.006;2023-03-23T06:07:37;100637.84;;;7.96;88.73
46291;BME280;32023;44.444;26.006;2023-03-23T06:10:33;100634.41;;;8.00;88.11
46291;BME280;32023;44.444;26.006;2023-03-23T06:13:23;100632.72;;;7.99;87.83
46291;BME280;32023;44.444;26.006;2023-03-23T06:15:54;100639.63;;;8.02;87.73
46291;BME280;32023;44.444;26.006;2023-03-23T06:18:26;100633.81;;;8.10;87.80
46291;BME280;32023;44.444;26.006;2023-03-23T06:21:06;100641.56;;;8.13;87.41
46291;BME280;32023;44.444;26.006;2023-03-23T06:23:59;100644.94;;;8.27;87.67
46291;BME280;32023;44.444;26.006;2023-03-23T06:26:43;100647.31;;;8.35;87.16
46291;BME280;32023;44.444;26.006;2023-03-23T06:29:21;100657.72;;;8.44;87.33
46291;BME280;32023;44.444;26.006;2023-03-23T06:32:09;100657.94;;;8.54;87.13
46291;BME280;32023;44.444;26.006;2023-03-23T06:41:21;100661.03;;;8.69;85.63
46291;BME280;32023;44.444;26.006;2023-03-23T06:43:47;100672.03;;;8.69;84.81
46291;BME280;32023;44.444;26.006;2023-03-23T06:46:14;100668.44;;;8.81;84.70
46291;BME280;32023;44.444;26.006;2023-03-23T06:48:40;100666.50;;;8.93;83.93
46291;BME280;32023;44.444;26.006;2023-03-23T06:51:19;100666.47;;;9.04;83.34
46291;BME280;32023;44.444;26.006;2023-03-23T06:53:53;100669.94;;;9.11;80.79
46291;BME280;32023;44.444;26.006;2023-03-23T07:04:35;100662.31;;;9.42;78.90
46291;BME280;32023;44.444;26.006;2023-03-23T07:13:18;100663.97;;;10.16;78.13
46291;BME280;32023;44.444;26.006;2023-03-23T07:35:06;100661.66;;;13.04;66.13
46291;BME280;32023;44.444;26.006;2023-03-23T07:37:55;100660.16;;;13.38;64.78
46291;BME280;32023;44.444;26.006;2023-03-23T07:43:29;100665.53;;;13.75;62.05
46291;BME280;32023;44.444;26.006;2023-03-23T07:46:14;100662.19;;;13.58;63.04
46291;BME280;32023;44.444;26.006;2023-03-23T07:49:24;100666.91;;;13.68;63.59
46291;BME280;32023;44.444;26.006;2023-03-23T07:54:48;100653.66;;;13.90;62.32
46291;BME280;32023;44.444;26.006;2023-03-23T07:57:33;100670.31;;;14.25;61.72
46291;BME280;32023;44.444;26.006;2023-03-23T08:00:11;100663.09;;;14.70;60.27
46291;BME280;32023;44.444;26.006;2023-03-23T08:03:00;100657.75;;;15.04;59.03
46291;BME280;32023;44.444;26.006;2023-03-23T08:05:29;100656.28;;;15.31;58.19
46291;BME280;32023;44.444;26.006;2023-03-23T08:13:57;100667.09;;;15.87;57.00
46291;BME280;32023;44.444;26.006;2023-03-23T08:19:17;100662.63;;;15.96;57.45
46291;BME280;32023;44.444;26.006;2023-03-23T08:21:55;100662.41;;;15.82;57.01
46291;BME280;32023;44.444;26.006;2023-03-23T08:24:40;100655.59;;;15.65;58.13
46291;BME280;32023;44.444;26.006;2023-03-23T08:27:16;100659.97;;;15.76;57.90
46291;BME280;32023;44.444;26.006;2023-03-23T08:29:45;100650.88;;;15.60;58.11
46291;BME280;32023;44.444;26.006;2023-03-23T08:34:52;100652.44;;;15.81;57.77
46291;BME280;32023;44.444;26.006;2023-03-23T08:40:05;100650.44;;;16.26;56.23
46291;BME280;32023;44.444;26.006;2023-03-23T08:42:43;100647.38;;;16.27;56.13
46291;BME280;32023;44.444;26.006;2023-03-23T08:45:10;100660.16;;;16.91;55.26
46291;BME280;32023;44.444;26.006;2023-03-23T08:47:45;100653.28;;;17.31;53.28
46291;BME280;32023;44.444;26.006;2023-03-23T08:50:20;100656.84;;;17.37;52.39
46291;BME280;32023;44.444;26.006;2023-03-23T08:52:49;100659.91;;;16.88;53.14
46291;BME280;32023;44.444;26.006;2023-03-23T08:55:28;100659.34;;;17.14;53.64
46291;BME280;32023;44.444;26.006;2023-03-23T08:58:08;100664.00;;;17.43;52.93
46291;BME280;32023;44.444;26.006;2023-03-23T09:01:08;100655.88;;;17.70;51.08
46291;BME280;32023;44.444;26.006;2023-03-23T09:03:37;100656.47;;;17.67;49.81
46291;BME280;32023;44.444;26.006;2023-03-23T09:06:04;100657.31;;;17.67;49.93
46291;BME280;32023;44.444;26.006;2023-03-23T09:08:32;100647.44;;;18.12;49.82
46291;BME280;32023;44.444;26.006;2023-03-23T09:11:02;100658.06;;;18.61;48.33
46291;BME280;32023;44.444;26.006;2023-03-23T09:16:42;100645.91;;;20.02;44.78
46291;BME280;32023;44.444;26.006;2023-03-23T09:19:16;100646.97;;;20.51;42.29
46291;BME280;32023;44.444;26.006;2023-03-23T09:21:45;100642.28;;;20.38;42.14
46291;BME280;32023;44.444;26.006;2023-03-23T09:24:15;100639.88;;;20.45;42.09
46291;BME280;32023;44.444;26.006;2023-03-23T09:26:44;100640.44;;;20.33;42.38
46291;BME280;32023;44.444;26.006;2023-03-23T09:29:13;100652.56;;;20.51;40.81
46291;BME280;32023;44.444;26.006;2023-03-23T09:31:40;100642.66;;;20.23;42.43
46291;BME280;32023;44.444;26.006;2023-03-23T09:34:07;100642.59;;;20.89;41.03
46291;BME280;32023;44.444;26.006;2023-03-23T09:36:36;100641.81;;;20.97;40.93
46291;BME280;32023;44.444;26.006;2023-03-23T09:39:02;100640.31;;;20.91;40.50
46291;BME280;32023;44.444;26.006;2023-03-23T09:41:53;100634.50;;;21.67;39.60
46291;BME280;32023;44.444;26.006;2023-03-23T09:44:31;100630.66;;;21.45;39.58
46291;BME280;32023;44.444;26.006;2023-03-23T09:52:33;100627.28;;;22.26;36.32
46291;BME280;32023;44.444;26.006;2023-03-23T09:55:07;100622.81;;;22.42;35.93
46291;BME280;32023;44.444;26.006;2023-03-23T10:00:30;100612.56;;;24.18;34.15
46291;BME280;32023;44.444;26.006;2023-03-23T10:03:13;100623.16;;;24.54;31.98
46291;BME280;32023;44.444;26.006;2023-03-23T10:05:50;100626.81;;;25.12;31.34
46291;BME280;32023;44.444;26.006;2023-03-23T10:08:20;100629.34;;;26.02;29.29
46291;BME280;32023;44.444;26.006;2023-03-23T10:13:46;100618.78;;;26.82;28.22
46291;BME280;32023;44.444;26.006;2023-03-23T10:27:38;100610.28;;;31.23;21.55
46291;BME280;32023;44.444;26.006;2023-03-23T10:38:37;100595.38;;;33.37;19.22
46291;BME280;32023;44.444;26.006;2023-03-23T10:41:15;100581.66;;;34.41;18.41
46291;BME280;32023;44.444;26.006;2023-03-23T10:43:52;100580.41;;;35.96;16.93
46291;BME280;32023;44.444;26.006;2023-03-23T10:49:02;100569.88;;;37.34;15.29
46291;BME280;32023;44.444;26.006;2023-03-23T10:51:33;100572.25;;;38.05;14.72
46291;BME280;32023;44.444;26.006;2023-03-23T10:54:08;100568.16;;;37.83;14.21
46291;BME280;32023;44.444;26.006;2023-03-23T10:56:42;100570.44;;;37.92;14.28
46291;BME280;32023;44.444;26.006;2023-03-23T10:59:33;100562.41;;;37.37;14.45
46291;BME280;32023;44.444;26.006;2023-03-23T11:02:11;100564.13;;;37.57;14.67
46291;BME280;32023;44.444;26.006;2023-03-23T11:04:41;100557.38;;;36.94;14.83
46291;BME280;32023;44.444;26.006;2023-03-23T11:07:18;100552.72;;;36.77;14.79
46291;BME280;32023;44.444;26.006;2023-03-23T11:09:53;100548.91;;;37.80;14.26
46291;BME280;32023;44.444;26.006;2023-03-23T11:12:20;100549.25;;;38.61;13.52
46291;BME280;32023;44.444;26.006;2023-03-23T11:15:03;100545.53;;;37.62;13.65
46291;BME280;32023;44.444;26.006;2023-03-23T11:17:32;100546.75;;;35.25;15.99
46291;BME280;32023;44.444;26.006;2023-03-23T11:20:09;100553.78;;;33.19;17.21
46291;BME280;32023;44.444;26.006;2023-03-23T11:22:45;100537.56;;;31.94;18.37
46291;BME280;32023;44.444;26.006;2023-03-23T11:25:23;100536.50;;;32.44;18.01
46291;BME280;32023;44.444;26.006;2023-03-23T11:27:55;100540.84;;;31.34;18.80
46291;BME280;32023;44.444;26.006;2023-03-23T11:30:36;100547.31;;;30.10;19.59
46291;BME280;32023;44.444;26.006;2023-03-23T11:33:16;100533.44;;;30.79;18.77
46291;BME280;32023;44.444;26.006;2023-03-23T11:35:49;100525.88;;;32.20;17.93
46291;BME280;32023;44.444;26.006;2023-03-23T11:38:21;100532.41;;;34.01;16.57
46291;BME280;32023;44.444;26.006;2023-03-23T11:40:54;100524.06;;;35.45;15.58
46291;BME280;32023;44.444;26.006;2023-03-23T11:43:21;100520.09;;;36.03;14.86
46291;BME280;32023;44.444;26.006;2023-03-23T11:48:35;100516.56;;;35.55;14.85
46291;BME280;32023;44.444;26.006;2023-03-23T11:51:18;100517.03;;;35.05;15.20
46291;BME280;32023;44.444;26.006;2023-03-23T11:56:55;100505.53;;;35.12;15.45
46291;BME280;32023;44.444;26.006;2023-03-23T11:59:09;100503.78;;;35.25;15.50
46291;BME280;32023;44.444;26.006;2023-03-23T12:01:42;100501.81;;;34.67;15.67
46291;BME280;32023;44.444;26.006;2023-03-23T12:15:18;100494.63;;;27.94;21.73
46291;BME280;32023;44.444;26.006;2023-03-23T12:20:28;100489.88;;;26.77;22.78
46291;BME280;32023;44.444;26.006;2023-03-23T12:31:07;100470.56;;;25.49;24.14
46291;BME280;32023;44.444;26.006;2023-03-23T12:42:26;100476.97;;;25.50;24.31
46291;BME280;32023;44.444;26.006;2023-03-23T12:47:51;100472.03;;;25.07;24.86
46291;BME280;32023;44.444;26.006;2023-03-23T13:11:04;100449.94;;;22.12;29.80
46291;BME280;32023;44.444;26.006;2023-03-23T13:24:29;100438.19;;;23.15;28.56
46291;BME280;32023;44.444;26.006;2023-03-23T13:26:58;100430.63;;;22.86;29.43
46291;BME280;32023;44.444;26.006;2023-03-23T13:35:00;100421.56;;;22.80;29.23
46291;BME280;32023;44.444;26.006;2023-03-23T13:37:30;100420.97;;;22.28;30.08
46291;BME280;32023;44.444;26.006;2023-03-23T13:40:13;100427.84;;;21.84;31.23
46291;BME280;32023;44.444;26.006;2023-03-23T13:42:52;100425.59;;;21.69;31.77
46291;BME280;32023;44.444;26.006;2023-03-23T13:45:20;100418.38;;;21.34;32.65
46291;BME280;32023;44.444;26.006;2023-03-23T13:47:49;100423.13;;;21.50;32.83
46291;BME280;32023;44.444;26.006;2023-03-23T13:50:30;100420.84;;;21.27;33.32
46291;BME280;32023;44.444;26.006;2023-03-23T13:52:58;100423.97;;;21.51;33.02
46291;BME280;32023;44.444;26.006;2023-03-23T13:57:54;100412.53;;;21.82;31.43
46291;BME280;32023;44.444;26.006;2023-03-23T14:03:02;100423.44;;;21.06;33.55
46291;BME280;32023;44.444;26.006;2023-03-23T14:05:33;100420.53;;;21.11;33.65
46291;BME280;32023;44.444;26.006;2023-03-23T14:08:02;100424.47;;;21.19;33.53
46291;BME280;32023;44.444;26.006;2023-03-23T14:10:32;100418.53;;;21.20;33.46
46291;BME280;32023;44.444;26.006;2023-03-23T14:12:59;100419.97;;;21.00;33.78
46291;BME280;32023;44.444;26.006;2023-03-23T14:15:37;100414.53;;;20.87;34.22
46291;BME280;32023;44.444;26.006;2023-03-23T14:18:06;100422.06;;;20.78;34.54
46291;BME280;32023;44.444;26.006;2023-03-23T14:20:33;100419.63;;;20.76;34.48
46291;BME280;32023;44.444;26.006;2023-03-23T14:23:02;100411.03;;;20.64;34.96
46291;BME280;32023;44.444;26.006;2023-03-23T14:25:30;100416.44;;;20.60;35.39
46291;BME280;32023;44.444;26.006;2023-03-23T14:28:02;100422.97;;;20.39;36.48
46291;BME280;32023;44.444;26.006;2023-03-23T14:30:38;100417.13;;;20.27;36.77
46291;BME280;32023;44.444;26.006;2023-03-23T14:33:06;100425.06;;;20.02;37.52
46291;BME280;32023;44.444;26.006;2023-03-23T14:35:40;100419.50;;;19.80;38.31
46291;BME280;32023;44.444;26.006;2023-03-23T14:38:11;100412.47;;;19.38;39.40
46291;BME280;32023;44.444;26.006;2023-03-23T14:40:40;100412.69;;;19.42;39.28
46291;BME280;32023;44.444;26.006;2023-03-23T14:43:07;100405.56;;;19.36;39.79
46291;BME280;32023;44.444;26.006;2023-03-23T14:45:47;100398.19;;;19.17;40.41
46291;BME280;32023;44.444;26.006;2023-03-23T14:48:16;100403.88;;;19.12;40.16
46291;BME280;32023;44.444;26.006;2023-03-23T14:50:51;100398.84;;;19.01;40.81
46291;BME280;32023;44.444;26.006;2023-03-23T14:53:37;100392.59;;;18.82;41.58
46291;BME280;32023;44.444;26.006;2023-03-23T14:56:22;100390.75;;;18.77;41.78
46291;BME280;32023;44.444;26.006;2023-03-23T14:59:09;100405.47;;;18.69;41.85
46291;BME280;32023;44.444;26.006;2023-03-23T15:04:58;100393.06;;;18.61;42.21
46291;BME280;32023;44.444;26.006;2023-03-23T15:07:28;100400.28;;;18.49;41.21
46291;BME280;32023;44.444;26.006;2023-03-23T15:10:01;100397.72;;;18.39;41.80
46291;BME280;32023;44.444;26.006;2023-03-23T15:12:46;100395.03;;;18.34;41.41
46291;BME280;32023;44.444;26.006;2023-03-23T15:18:29;100386.13;;;18.18;41.44
46291;BME280;32023;44.444;26.006;2023-03-23T15:21:07;100389.97;;;18.08;41.96
46291;BME280;32023;44.444;26.006;2023-03-23T15:23:44;100400.09;;;18.04;42.07
46291;BME280;32023;44.444;26.006;2023-03-23T15:26:43;100402.53;;;17.92;42.96
46291;BME280;32023;44.444;26.006;2023-03-23T15:29:17;100397.34;;;17.72;44.29
46291;BME280;32023;44.444;26.006;2023-03-23T15:31:52;100395.47;;;17.49;44.71
46291;BME280;32023;44.444;26.006;2023-03-23T15:34:33;100401.31;;;17.33;45.46
46291;BME280;32023;44.444;26.006;2023-03-23T15:40:43;100399.56;;;17.05;46.33
46291;BME280;32023;44.444;26.006;2023-03-23T15:45:36;100416.91;;;16.60;47.12
46291;BME280;32023;44.444;26.006;2023-03-23T15:48:12;100410.31;;;16.51;47.90
46291;BME280;32023;44.444;26.006;2023-03-23T15:50:46;100412.69;;;16.38;48.34
46291;BME280;32023;44.444;26.006;2023-03-23T15:53:19;100417.19;;;16.34;49.20
46291;BME280;32023;44.444;26.006;2023-03-23T15:55:46;100417.03;;;16.26;49.29
46291;BME280;32023;44.444;26.006;2023-03-23T15:58:12;100415.75;;;16.13;50.00
46291;BME280;32023;44.444;26.006;2023-03-23T16:00:42;100418.94;;;16.02;50.64
46291;BME280;32023;44.444;26.006;2023-03-23T16:03:11;100423.31;;;15.84;51.04
46291;BME280;32023;44.444;26.006;2023-03-23T16:05:38;100416.78;;;15.70;51.06
46291;BME280;32023;44.444;26.006;2023-03-23T16:08:09;100412.97;;;15.61;51.14
46291;BME280;32023;44.444;26.006;2023-03-23T16:10:36;100420.81;;;15.49;51.71
46291;BME280;32023;44.444;26.006;2023-03-23T16:13:02;100412.84;;;15.42;51.89
46291;BME280;32023;44.444;26.006;2023-03-23T16:15:30;100424.31;;;15.30;52.07
46291;BME280;32023;44.444;26.006;2023-03-23T16:17:56;100438.00;;;15.22;52.54
46291;BME280;32023;44.444;26.006;2023-03-23T16:20:23;100425.00;;;15.12;52.95
46291;BME280;32023;44.444;26.006;2023-03-23T16:22:49;100427.28;;;15.05;53.61
46291;BME280;32023;44.444;26.006;2023-03-23T16:25:16;100426.19;;;15.01;53.84
46291;BME280;32023;44.444;26.006;2023-03-23T16:27:47;100432.91;;;14.95;53.79
46291;BME280;32023;44.444;26.006;2023-03-23T16:30:19;100430.72;;;14.87;54.47
46291;BME280;32023;44.444;26.006;2023-03-23T16:32:45;100436.56;;;14.80;54.37
46291;BME280;32023;44.444;26.006;2023-03-23T16:35:12;100429.72;;;14.73;54.86
46291;BME280;32023;44.444;26.006;2023-03-23T16:37:42;100439.47;;;14.65;55.08
46291;BME280;32023;44.444;26.006;2023-03-23T16:40:10;100440.56;;;14.59;55.37
46291;BME280;32023;44.444;26.006;2023-03-23T16:42:37;100434.78;;;14.51;55.33
46291;BME280;32023;44.444;26.006;2023-03-23T16:45:03;100442.00;;;14.46;55.88
46291;BME280;32023;44.444;26.006;2023-03-23T16:47:29;100434.84;;;14.35;56.21
46291;BME280;32023;44.444;26.006;2023-03-23T16:50:03;100436.50;;;14.31;56.44
46291;BME280;32023;44.444;26.006;2023-03-23T16:52:31;100435.97;;;14.24;56.68
46291;BME280;32023;44.444;26.006;2023-03-23T16:54:58;100432.66;;;14.17;56.81
46291;BME280;32023;44.444;26.006;2023-03-23T16:57:24;100437.13;;;14.13;56.62
46291;BME280;32023;44.444;26.006;2023-03-23T17:02:47;100445.47;;;14.03;56.79
46291;BME280;32023;44.444;26.006;2023-03-23T17:05:14;100447.97;;;13.99;57.16
46291;BME280;32023;44.444;26.006;2023-03-23T17:07:47;100439.09;;;13.97;57.11
46291;BME280;32023;44.444;26.006;2023-03-23T17:10:16;100443.25;;;13.95;57.10
46291;BME280;32023;44.444;26.006;2023-03-23T17:12:52;100446.59;;;13.92;57.09
46291;BME280;32023;44.444;26.006;2023-03-23T17:15:29;100441.34;;;13.85;57.25
46291;BME280;32023;44.444;26.006;2023-03-23T17:18:09;100445.50;;;13.83;57.40
46291;BME280;32023;44.444;26.006;2023-03-23T17:20:41;100449.91;;;13.79;57.43
46291;BME280;32023;44.444;26.006;2023-03-23T17:23:17;100458.78;;;13.76;57.66
46291;BME280;32023;44.444;26.006;2023-03-23T17:25:57;100459.34;;;13.73;57.84
46291;BME280;32023;44.444;26.006;2023-03-23T17:28:43;100459.06;;;13.69;58.02
46291;BME280;32023;44.444;26.006;2023-03-23T17:31:12;100469.03;;;13.65;58.24
46291;BME280;32023;44.444;26.006;2023-03-23T17:33:48;100468.75;;;13.62;58.33
46291;BME280;32023;44.444;26.006;2023-03-23T17:36:25;100484.25;;;13.58;58.69